createdAt,value
2023-05-04T00:00:06.887Z,1023.3
2023-05-04T00:01:22.811Z,1023.4
2023-05-04T00:02:38.989Z,1023.4
2023-05-04T00:03:55.191Z,1023.3
2023-05-04T00:05:11.644Z,1023.3
2023-05-04T00:06:27.831Z,1023.3
2023-05-04T00:07:44.022Z,1023.3
2023-05-04T00:08:59.926Z,1023.2
2023-05-04T00:10:16.391Z,1023.3
2023-05-04T00:11:32.295Z,1023.3
2023-05-04T00:12:47.775Z,1023.3
2023-05-04T00:14:03.702Z,1023.3
2023-05-04T00:15:20.148Z,1023.3
2023-05-04T00:16:36.336Z,1023.3
2023-05-04T00:17:52.258Z,1023.3
2023-05-04T00:19:08.710Z,1023.3
2023-05-04T00:20:24.902Z,1023.2
2023-05-04T00:21:40.818Z,1023.2
2023-05-04T00:22:56.994Z,1023.3
2023-05-04T00:24:13.188Z,1023.3
2023-05-04T00:25:29.645Z,1023.3
2023-05-04T00:26:45.558Z,1023.2
2023-05-04T00:28:02.026Z,1023.2
2023-05-04T00:29:17.235Z,1023.2
2023-05-04T00:30:33.409Z,1023.2
2023-05-04T00:31:49.335Z,1023.2
2023-05-04T00:33:05.784Z,1023.3
2023-05-04T00:34:21.691Z,1023.2
2023-05-04T00:35:37.878Z,1023.2
2023-05-04T00:36:54.065Z,1023.2
2023-05-04T00:38:10.265Z,1023.2
2023-05-04T00:39:26.445Z,1023.2
2023-05-04T00:40:42.624Z,1023.2
2023-05-04T00:41:59.092Z,1023.2
2023-05-04T00:43:15.284Z,1023.2
2023-05-04T00:44:31.476Z,1023.2
2023-05-04T00:45:46.404Z,1023.2
2023-05-04T00:47:02.577Z,1023.2
2023-05-04T00:48:18.774Z,1023.2
2023-05-04T00:49:34.967Z,1023.2
2023-05-04T00:50:51.428Z,1023.2
2023-05-04T00:52:07.337Z,1023.1
2023-05-04T00:53:23.800Z,1023.2
2023-05-04T00:54:39.993Z,1023.2
2023-05-04T00:55:55.884Z,1023.1
2023-05-04T00:57:12.085Z,1023.1
2023-05-04T00:58:28.554Z,1023.2
2023-05-04T00:59:44.459Z,1023.2
2023-05-04T01:01:00.925Z,1023.1
2023-05-04T01:02:15.841Z,1023.1
2023-05-04T01:03:32.318Z,1023.1
2023-05-04T01:04:48.214Z,1023.1
2023-05-04T01:06:04.400Z,1023.1
2023-05-04T01:07:20.590Z,1023.2
2023-05-04T01:08:36.786Z,1023.1
2023-05-04T01:09:53.257Z,1023.2
2023-05-04T01:11:09.158Z,1023.1
2023-05-04T01:12:25.347Z,1023.1
2023-05-04T01:13:41.819Z,1023.1
2023-05-04T01:14:57.716Z,1023.1
2023-05-04T01:16:13.890Z,1023.1
2023-05-04T01:17:30.086Z,1023.1
2023-05-04T01:18:45.295Z,1023.1
2023-05-04T01:20:01.474Z,1023
2023-05-04T01:21:17.959Z,1023
2023-05-04T01:22:34.148Z,1023.1
2023-05-04T01:23:50.323Z,1023
2023-05-04T01:25:06.233Z,1023
2023-05-04T01:26:22.690Z,1023
2023-05-04T01:27:38.606Z,1023.1
2023-05-04T01:28:55.071Z,1023
2023-05-04T01:30:10.971Z,1023
2023-05-04T01:31:27.158Z,1023.1
2023-05-04T01:32:43.630Z,1023.1
2023-05-04T01:33:59.532Z,1023.1
2023-05-04T01:35:15.020Z,1023.1
2023-05-04T01:36:30.922Z,1023.1
2023-05-04T01:37:47.101Z,1023.1
2023-05-04T01:39:03.593Z,1023.1
2023-05-04T01:40:19.485Z,1023.1
2023-05-04T01:41:35.957Z,1023.1
2023-05-04T01:42:51.863Z,1023.2
2023-05-04T01:44:08.339Z,1023.1
2023-05-04T01:45:24.224Z,1023.1
2023-05-04T01:46:40.711Z,1023.1
2023-05-04T01:47:56.889Z,1023.1
2023-05-04T01:49:13.080Z,1023.1
2023-05-04T01:50:28.967Z,1023.1
2023-05-04T01:51:44.169Z,1023.1
2023-05-04T01:53:00.366Z,1023
2023-05-04T01:54:16.556Z,1023.1
2023-05-04T01:55:32.732Z,1023
2023-05-04T01:56:48.925Z,1023
2023-05-04T01:58:05.402Z,1023
2023-05-04T01:59:20.316Z,1023.1
2023-05-04T02:00:36.814Z,1023
2023-05-04T02:01:53.002Z,1023
2023-05-04T02:03:08.892Z,1023
2023-05-04T02:04:25.064Z,1023
2023-05-04T02:05:41.265Z,1023
2023-05-04T02:06:57.440Z,1023
2023-05-04T02:08:13.639Z,1023
2023-05-04T02:09:29.818Z,1023
2023-05-04T02:10:46.000Z,1023
2023-05-04T02:12:02.486Z,1023
2023-05-04T02:13:18.670Z,1023
2023-05-04T02:14:34.863Z,1023
2023-05-04T02:15:49.773Z,1023
2023-05-04T02:17:05.962Z,1023
2023-05-04T02:18:22.148Z,1023
2023-05-04T02:19:38.318Z,1023
2023-05-04T02:20:54.511Z,1023
2023-05-04T02:22:10.707Z,1023
2023-05-04T02:23:26.881Z,1022.9
2023-05-04T02:24:43.064Z,1022.9
2023-05-04T02:25:59.558Z,1022.9
2023-05-04T02:27:15.437Z,1023
2023-05-04T02:28:31.627Z,1022.9
2023-05-04T02:29:48.120Z,1022.9
2023-05-04T02:31:04.015Z,1022.9
2023-05-04T02:32:19.511Z,1022.9
2023-05-04T02:33:35.393Z,1022.9
2023-05-04T02:34:51.593Z,1023
2023-05-04T02:36:07.772Z,1022.9
2023-05-04T02:37:24.271Z,1022.9
2023-05-04T02:38:40.448Z,1022.9
2023-05-04T02:39:56.644Z,1022.9
2023-05-04T02:41:12.516Z,1022.9
2023-05-04T02:42:28.716Z,1022.9
2023-05-04T02:43:44.885Z,1023
2023-05-04T02:45:01.089Z,1022.9
2023-05-04T02:46:17.275Z,1022.9
2023-05-04T02:47:33.755Z,1022.9
2023-05-04T02:48:48.654Z,1023
2023-05-04T02:50:04.845Z,1022.9
2023-05-04T02:51:21.346Z,1023
2023-05-04T02:52:37.208Z,1023
2023-05-04T02:53:53.396Z,1023
2023-05-04T02:55:09.905Z,1023
2023-05-04T02:56:25.786Z,1023
2023-05-04T02:57:41.973Z,1022.9
2023-05-04T02:58:58.153Z,1022.9
2023-05-04T03:00:14.661Z,1022.9
2023-05-04T03:01:30.529Z,1023
2023-05-04T03:02:47.024Z,1023
2023-05-04T03:04:03.228Z,1022.9
2023-05-04T03:05:18.108Z,1022.9
2023-05-04T03:06:34.299Z,1023
2023-05-04T03:07:50.494Z,1022.9
2023-05-04T03:09:06.685Z,1022.9
2023-05-04T03:10:23.184Z,1022.9
2023-05-04T03:12:55.248Z,1022.9
2023-05-04T03:14:11.746Z,1022.9
2023-05-04T03:15:27.937Z,1022.9
2023-05-04T03:16:43.801Z,1022.9
2023-05-04T03:18:00.305Z,1022.8
2023-05-04T03:19:16.194Z,1022.9
2023-05-04T03:20:32.679Z,1022.9
2023-05-04T03:21:47.577Z,1022.9
2023-05-04T03:23:04.080Z,1022.9
2023-05-04T03:24:19.963Z,1022.9
2023-05-04T03:25:36.464Z,1022.8
2023-05-04T03:26:52.651Z,1022.8
2023-05-04T03:28:08.517Z,1022.8
2023-05-04T03:29:25.015Z,1022.8
2023-05-04T03:30:41.206Z,1022.8
2023-05-04T03:31:57.089Z,1022.8
2023-05-04T03:33:13.596Z,1022.8
2023-05-04T03:34:29.473Z,1022.9
2023-05-04T03:35:45.978Z,1022.8
2023-05-04T03:37:01.840Z,1022.8
2023-05-04T03:38:17.372Z,1022.8
2023-05-04T03:39:33.235Z,1022.9
2023-05-04T03:40:49.429Z,1022.8
2023-05-04T03:42:05.918Z,1022.9
2023-05-04T03:43:21.801Z,1022.8
2023-05-04T03:44:37.985Z,1022.8
2023-05-04T03:45:54.492Z,1022.8
2023-05-04T03:47:10.360Z,1022.9
2023-05-04T03:48:26.562Z,1022.9
2023-05-04T03:49:42.742Z,1022.8
2023-05-04T03:50:58.928Z,1022.9
2023-05-04T03:52:15.430Z,1022.8
2023-05-04T03:53:31.625Z,1022.8
2023-05-04T03:54:46.837Z,1022.8
2023-05-04T03:56:03.013Z,1022.8
2023-05-04T03:58:35.080Z,1022.7
2023-05-04T03:59:51.259Z,1022.8
2023-05-04T04:01:07.782Z,1022.8
2023-05-04T04:02:23.650Z,1022.8
2023-05-04T04:03:40.150Z,1022.8
2023-05-04T04:04:56.019Z,1022.8
2023-05-04T04:06:12.200Z,1022.8
2023-05-04T04:07:28.708Z,1022.8
2023-05-04T04:08:44.914Z,1022.8
2023-05-04T04:10:00.778Z,1022.8
2023-05-04T04:11:15.981Z,1022.8
2023-05-04T04:12:32.162Z,1022.9
2023-05-04T04:13:48.688Z,1022.9
2023-05-04T04:15:04.535Z,1022.9
2023-05-04T04:16:21.047Z,1022.8
2023-05-04T04:17:36.924Z,1022.9
2023-05-04T04:18:53.441Z,1022.8
2023-05-04T04:20:09.631Z,1022.8
2023-05-04T04:21:25.485Z,1022.8
2023-05-04T04:22:41.674Z,1022.8
2023-05-04T04:23:57.872Z,1022.9
2023-05-04T04:26:30.575Z,1022.8
2023-05-04T04:27:45.692Z,1022.8
2023-05-04T04:29:01.895Z,1022.9
2023-05-04T04:30:18.157Z,1022.8
2023-05-04T04:31:34.261Z,1022.8
2023-05-04T04:32:50.517Z,1022.8
2023-05-04T04:34:06.717Z,1022.8
2023-05-04T04:35:22.823Z,1022.8
2023-05-04T04:36:39.021Z,1022.8
2023-05-04T04:37:55.198Z,1022.8
2023-05-04T04:39:11.399Z,1022.8
2023-05-04T04:40:27.588Z,1022.8
2023-05-04T04:41:43.846Z,1022.8
2023-05-04T04:43:00.032Z,1022.8
2023-05-04T04:44:15.178Z,1022.8
2023-05-04T04:45:31.440Z,1022.8
2023-05-04T04:46:47.622Z,1022.8
2023-05-04T04:48:03.744Z,1022.8
2023-05-04T04:49:19.930Z,1022.8
2023-05-04T04:50:36.106Z,1022.8
2023-05-04T04:51:52.303Z,1022.8
2023-05-04T04:53:08.488Z,1022.8
2023-05-04T04:54:24.673Z,1022.8
2023-05-04T04:55:40.869Z,1022.8
2023-05-04T04:56:57.138Z,1022.8
2023-05-04T04:58:13.332Z,1022.8
2023-05-04T04:59:29.514Z,1022.8
2023-05-04T05:00:44.635Z,1022.8
2023-05-04T05:02:00.818Z,1022.8
2023-05-04T05:03:17.022Z,1022.8
2023-05-04T05:04:33.201Z,1022.8
2023-05-04T05:05:49.399Z,1022.8
2023-05-04T05:07:05.589Z,1022.8
2023-05-04T05:08:21.855Z,1022.8
2023-05-04T05:09:38.051Z,1022.8
2023-05-04T05:10:54.234Z,1022.8
2023-05-04T05:12:10.335Z,1022.9
2023-05-04T05:13:26.528Z,1022.8
2023-05-04T05:14:42.705Z,1022.8
2023-05-04T05:15:58.909Z,1022.7
2023-05-04T05:17:14.184Z,1022.7
2023-05-04T05:18:30.291Z,1022.8
2023-05-04T05:19:46.481Z,1022.7
2023-05-04T05:21:02.676Z,1022.7
2023-05-04T05:22:18.872Z,1022.7
2023-05-04T05:23:35.061Z,1022.7
2023-05-04T05:24:51.330Z,1022.7
2023-05-04T05:26:07.435Z,1022.7
2023-05-04T05:27:23.708Z,1022.7
2023-05-04T05:28:39.812Z,1022.7
2023-05-04T05:29:55.995Z,1022.8
2023-05-04T05:31:12.175Z,1022.8
2023-05-04T05:32:28.460Z,1022.7
2023-05-04T05:33:43.666Z,1022.8
2023-05-04T05:34:59.759Z,1022.7
2023-05-04T05:36:16.040Z,1022.7
2023-05-04T05:37:32.146Z,1022.7
2023-05-04T05:38:48.427Z,1022.7
2023-05-04T05:40:04.529Z,1022.7
2023-05-04T05:41:20.711Z,1022.7
2023-05-04T05:42:36.987Z,1022.7
2023-05-04T05:43:53.096Z,1022.7
2023-05-04T05:45:09.270Z,1022.8
2023-05-04T05:46:25.562Z,1022.8
2023-05-04T05:47:41.652Z,1022.8
2023-05-04T05:48:57.940Z,1022.8
2023-05-04T05:50:13.143Z,1022.7
2023-05-04T05:51:29.244Z,1022.7
2023-05-04T05:52:45.415Z,1022.7
2023-05-04T05:54:01.619Z,1022.7
2023-05-04T05:55:17.898Z,1022.7
2023-05-04T05:56:33.985Z,1022.7
2023-05-04T05:57:50.268Z,1022.6
2023-05-04T05:59:06.371Z,1022.6
2023-05-04T06:00:22.563Z,1022.6
2023-05-04T06:01:38.829Z,1022.7
2023-05-04T06:02:55.030Z,1022.6
2023-05-04T06:04:11.126Z,1022.6
2023-05-04T06:05:27.410Z,1022.6
2023-05-04T06:06:42.517Z,1022.7
2023-05-04T06:07:58.711Z,1022.7
2023-05-04T06:09:14.903Z,1022.7
2023-05-04T06:10:31.170Z,1022.7
2023-05-04T06:11:47.355Z,1022.7
2023-05-04T06:13:03.564Z,1022.7
2023-05-04T06:14:18.761Z,1022.7
2023-05-04T06:15:34.852Z,1022.7
2023-05-04T06:16:51.037Z,1022.6
2023-05-04T06:18:07.323Z,1022.6
2023-05-04T06:19:23.426Z,1022.6
2023-05-04T06:20:39.699Z,1022.6
2023-05-04T06:21:55.797Z,1022.6
2023-05-04T06:23:11.983Z,1022.6
2023-05-04T06:24:28.187Z,1022.6
2023-05-04T06:25:44.465Z,1022.6
2023-05-04T06:27:00.543Z,1022.6
2023-05-04T06:28:16.847Z,1022.6
2023-05-04T06:29:33.047Z,1022.5
2023-05-04T06:30:48.265Z,1022.5
2023-05-04T06:32:04.456Z,1022.6
2023-05-04T06:33:20.731Z,1022.6
2023-05-04T06:34:36.827Z,1022.6
2023-05-04T06:35:53.021Z,1022.6
2023-05-04T06:37:09.302Z,1022.6
2023-05-04T06:38:25.391Z,1022.6
2023-05-04T06:39:41.567Z,1022.7
2023-05-04T06:40:57.868Z,1022.6
2023-05-04T06:42:13.950Z,1022.7
2023-05-04T06:43:30.254Z,1022.7
2023-05-04T06:44:46.339Z,1022.6
2023-05-04T06:46:02.520Z,1022.7
2023-05-04T06:47:17.727Z,1022.6
2023-05-04T06:48:33.907Z,1022.7
2023-05-04T06:49:50.214Z,1022.7
2023-05-04T06:51:06.386Z,1022.7
2023-05-04T06:52:22.483Z,1022.6
2023-05-04T06:53:38.668Z,1022.7
2023-05-04T06:56:11.147Z,1022.7
2023-05-04T06:57:27.230Z,1022.6
2023-05-04T06:58:43.523Z,1022.7
2023-05-04T06:59:59.614Z,1022.6
2023-05-04T07:01:15.908Z,1022.6
2023-05-04T07:02:31.983Z,1022.6
2023-05-04T07:03:47.291Z,1022.7
2023-05-04T07:05:03.482Z,1022.7
2023-05-04T07:06:19.562Z,1022.7
2023-05-04T07:07:35.753Z,1022.7
2023-05-04T07:08:51.957Z,1022.7
2023-05-04T07:10:08.125Z,1022.7
2023-05-04T07:11:24.437Z,1022.7
2023-05-04T07:12:40.517Z,1022.6
2023-05-04T07:13:56.806Z,1022.6
2023-05-04T07:15:13.000Z,1022.7
2023-05-04T07:16:29.087Z,1022.6
2023-05-04T07:17:45.375Z,1022.6
2023-05-04T07:19:01.574Z,1022.6
2023-05-04T07:20:16.661Z,1022.6
2023-05-04T07:21:32.960Z,1022.6
2023-05-04T07:22:49.031Z,1022.6
2023-05-04T07:24:05.223Z,1022.6
2023-05-04T07:25:21.414Z,1022.6
2023-05-04T07:26:37.719Z,1022.6
2023-05-04T07:27:53.901Z,1022.7
2023-05-04T07:29:10.089Z,1022.6
2023-05-04T07:30:26.179Z,1022.6
2023-05-04T07:31:42.355Z,1022.6
2023-05-04T07:34:14.841Z,1022.5
2023-05-04T07:35:30.924Z,1022.5
2023-05-04T07:36:46.129Z,1022.5
2023-05-04T07:38:02.327Z,1022.5
2023-05-04T07:39:18.502Z,1022.5
2023-05-04T07:40:34.702Z,1022.5
2023-05-04T07:41:51.001Z,1022.5
2023-05-04T07:43:07.066Z,1022.5
2023-05-04T07:44:23.371Z,1022.5
2023-05-04T07:45:39.444Z,1022.4
2023-05-04T07:46:55.643Z,1022.5
2023-05-04T07:48:11.830Z,1022.5
2023-05-04T07:49:28.122Z,1022.5
2023-05-04T07:50:44.214Z,1022.5
2023-05-04T07:52:00.513Z,1022.4
2023-05-04T07:53:16.713Z,1022.5
2023-05-04T07:54:33.001Z,1022.4
2023-05-04T07:55:49.089Z,1022.3
2023-05-04T07:57:05.381Z,1022.3
2023-05-04T07:58:21.454Z,1022.3
2023-05-04T07:59:37.766Z,1022.3
2023-05-04T08:00:53.827Z,1022.3
2023-05-04T08:02:10.015Z,1022.3
2023-05-04T08:03:26.211Z,1022.3
2023-05-04T08:04:42.397Z,1022.3
2023-05-04T08:07:14.898Z,1022.3
2023-05-04T08:08:30.996Z,1022.2
2023-05-04T08:09:46.203Z,1022.2
2023-05-04T08:11:02.390Z,1022.2
2023-05-04T08:12:18.664Z,1022.1
2023-05-04T08:13:34.776Z,1022.2
2023-05-04T08:14:51.046Z,1022.2
2023-05-04T08:16:07.146Z,1022.2
2023-05-04T08:17:23.329Z,1022.2
2023-05-04T08:18:39.530Z,1022.2
2023-05-04T08:19:55.800Z,1022.2
2023-05-04T08:21:11.980Z,1022.2
2023-05-04T08:22:28.094Z,1022.2
2023-05-04T08:23:44.273Z,1022.2
2023-05-04T08:25:00.462Z,1022.2
2023-05-04T08:26:15.673Z,1022.2
2023-05-04T08:27:31.948Z,1022.2
2023-05-04T08:28:48.039Z,1022.2
2023-05-04T08:30:04.234Z,1022.2
2023-05-04T08:31:20.435Z,1022.1
2023-05-04T08:32:36.615Z,1022.1
2023-05-04T08:33:52.814Z,1022.1
2023-05-04T08:35:09.076Z,1022.1
2023-05-04T08:36:25.178Z,1022.1
2023-05-04T08:37:41.464Z,1022
2023-05-04T08:38:57.558Z,1022
2023-05-04T08:40:13.832Z,1022
2023-05-04T08:41:29.933Z,1022.1
2023-05-04T08:42:45.240Z,1022
2023-05-04T08:44:01.327Z,1022.1
2023-05-04T08:45:17.604Z,1022.1
2023-05-04T08:46:33.703Z,1022.1
2023-05-04T08:47:49.896Z,1022
2023-05-04T08:49:06.091Z,1022.1
2023-05-04T08:50:22.367Z,1022
2023-05-04T08:51:38.468Z,1022.1
2023-05-04T08:52:54.643Z,1022.1
2023-05-04T08:54:10.827Z,1022
2023-05-04T08:55:27.112Z,1022
2023-05-04T08:56:43.223Z,1021.9
2023-05-04T08:57:59.406Z,1021.9
2023-05-04T08:59:14.606Z,1021.9
2023-05-04T09:00:30.795Z,1021.9
2023-05-04T09:01:46.988Z,1021.9
2023-05-04T09:03:03.164Z,1021.9
2023-05-04T09:04:19.369Z,1021.9
2023-05-04T09:05:35.644Z,1021.9
2023-05-04T09:06:51.732Z,1021.9
2023-05-04T09:08:08.026Z,1021.9
2023-05-04T09:09:24.109Z,1021.9
2023-05-04T09:10:40.402Z,1021.9
2023-05-04T09:11:56.496Z,1021.9
2023-05-04T09:13:12.777Z,1021.9
2023-05-04T09:14:28.862Z,1021.9
2023-05-04T09:15:44.071Z,1021.9
2023-05-04T09:17:00.260Z,1022
2023-05-04T09:18:16.447Z,1021.9
2023-05-04T09:19:32.633Z,1021.9
2023-05-04T09:20:48.931Z,1022
2023-05-04T09:22:05.115Z,1021.9
2023-05-04T09:23:21.215Z,1022
2023-05-04T09:24:37.497Z,1021.9
2023-05-04T09:25:53.681Z,1021.9
2023-05-04T09:27:09.782Z,1021.9
2023-05-04T09:28:26.070Z,1021.8
2023-05-04T09:29:42.158Z,1021.9
2023-05-04T09:30:58.435Z,1021.9
2023-05-04T09:32:13.539Z,1021.8
2023-05-04T09:33:29.734Z,1021.8
2023-05-04T09:34:45.927Z,1021.8
2023-05-04T09:36:02.220Z,1021.8
2023-05-04T09:37:18.300Z,1021.8
2023-05-04T09:38:34.599Z,1021.8
2023-05-04T09:39:50.680Z,1021.8
2023-05-04T09:41:06.855Z,1021.8
2023-05-04T09:42:23.052Z,1021.7
2023-05-04T09:43:39.232Z,1021.8
2023-05-04T09:44:55.427Z,1021.8
2023-05-04T09:46:11.627Z,1021.7
2023-05-04T09:47:27.803Z,1021.8
2023-05-04T09:48:43.022Z,1021.8
2023-05-04T09:49:59.203Z,1021.7
2023-05-04T09:51:15.389Z,1021.7
2023-05-04T09:52:31.577Z,1021.7
2023-05-04T09:53:47.863Z,1021.7
2023-05-04T09:55:03.949Z,1021.6
2023-05-04T09:56:20.149Z,1021.6
2023-05-04T09:57:36.324Z,1021.7
2023-05-04T09:58:52.638Z,1021.6
2023-05-04T10:00:08.809Z,1021.6
2023-05-04T10:01:24.998Z,1021.6
2023-05-04T10:02:41.081Z,1021.5
2023-05-04T10:03:57.266Z,1021.5
2023-05-04T10:05:12.486Z,1021.4
2023-05-04T10:06:28.776Z,1021.4
2023-05-04T10:07:44.854Z,1021.4
2023-05-04T10:09:01.163Z,1021.4
2023-05-04T10:10:17.231Z,1021.4
2023-05-04T10:11:33.422Z,1021.3
2023-05-04T10:12:49.603Z,1021.4
2023-05-04T10:14:05.921Z,1021.3
2023-05-04T10:15:21.984Z,1021.3
2023-05-04T10:16:38.294Z,1021.3
2023-05-04T10:17:54.359Z,1021.3
2023-05-04T10:19:10.657Z,1021.3
2023-05-04T10:20:26.748Z,1021.3
2023-05-04T10:21:42.069Z,1021.3
2023-05-04T10:22:58.141Z,1021.2
2023-05-04T10:24:14.327Z,1021.2
2023-05-04T10:25:30.625Z,1021.2
2023-05-04T10:26:46.704Z,1021.2
2023-05-04T10:28:02.896Z,1021.1
2023-05-04T10:29:18.224Z,1021.1
2023-05-04T10:30:34.295Z,1021.1
2023-05-04T10:31:50.592Z,1021.1
2023-05-04T10:33:06.677Z,1021.1
2023-05-04T10:34:22.978Z,1021.1
2023-05-04T10:35:39.046Z,1021
2023-05-04T10:36:55.243Z,1021
2023-05-04T10:38:11.543Z,1021
2023-05-04T10:39:27.736Z,1021
2023-05-04T10:40:43.911Z,1020.9
2023-05-04T10:41:59.978Z,1021
2023-05-04T10:43:16.169Z,1020.9
2023-05-04T10:44:32.487Z,1020.8
2023-05-04T10:45:47.568Z,1020.8
2023-05-04T10:47:03.872Z,1020.9
2023-05-04T10:48:19.939Z,1020.9
2023-05-04T10:49:36.137Z,1020.8
2023-05-04T10:50:52.325Z,1020.8
2023-05-04T10:52:08.629Z,1020.8
2023-05-04T10:53:24.820Z,1020.7
2023-05-04T10:54:41.007Z,1020.7
2023-05-04T10:55:57.088Z,1020.7
2023-05-04T10:57:13.275Z,1020.8
2023-05-04T10:58:29.465Z,1020.7
2023-05-04T10:59:45.635Z,1020.7
2023-05-04T11:01:01.825Z,1020.7
2023-05-04T11:02:17.048Z,1020.6
2023-05-04T11:03:33.353Z,1020.6
2023-05-04T11:04:49.420Z,1020.6
2023-05-04T11:06:05.611Z,1020.6
2023-05-04T11:07:21.917Z,1020.5
2023-05-04T11:08:37.977Z,1020.5
2023-05-04T11:09:54.299Z,1020.5
2023-05-04T11:11:10.354Z,1020.6
2023-05-04T11:12:26.540Z,1020.5
2023-05-04T11:13:42.726Z,1020.5
2023-05-04T11:14:59.054Z,1020.4
2023-05-04T11:16:15.234Z,1020.4
2023-05-04T11:17:31.301Z,1020.5
2023-05-04T11:18:46.518Z,1020.4
2023-05-04T11:20:02.832Z,1020.5
2023-05-04T11:21:18.893Z,1020.4
2023-05-04T11:22:35.205Z,1020.4
2023-05-04T11:23:51.265Z,1020.4
2023-05-04T11:25:07.568Z,1020.4
2023-05-04T11:26:23.637Z,1020.4
2023-05-04T11:27:39.830Z,1020.4
2023-05-04T11:28:56.146Z,1020.3
2023-05-04T11:30:12.335Z,1020.3
2023-05-04T11:31:28.387Z,1020.3
2023-05-04T11:32:44.710Z,1020.2
2023-05-04T11:34:00.763Z,1020.2
2023-05-04T11:35:16.100Z,1020.3
2023-05-04T11:36:32.162Z,1020.2
2023-05-04T11:37:48.477Z,1020.2
2023-05-04T11:39:04.539Z,1020.2
2023-05-04T11:40:20.739Z,1020.2
2023-05-04T11:41:37.042Z,1020.1
2023-05-04T11:42:53.119Z,1020.1
2023-05-04T11:44:09.309Z,1020.1
2023-05-04T11:45:25.617Z,1020.1
2023-05-04T11:46:41.678Z,1020.1
2023-05-04T11:47:57.995Z,1020.1
2023-05-04T11:49:14.051Z,1020.1
2023-05-04T11:50:30.242Z,1020
2023-05-04T11:51:45.440Z,1020
2023-05-04T11:53:01.765Z,1020
2023-05-04T11:54:17.823Z,1020
2023-05-04T11:55:34.155Z,1020
2023-05-04T11:56:50.193Z,1020
2023-05-04T11:58:06.386Z,1019.9
2023-05-04T11:59:22.587Z,1019.9
2023-05-04T12:00:38.896Z,1019.9
2023-05-04T12:01:54.955Z,1019.9
2023-05-04T12:03:11.137Z,1019.8
2023-05-04T12:04:27.330Z,1019.8
2023-05-04T12:05:43.532Z,1019.8
2023-05-04T12:06:59.719Z,1019.8
2023-05-04T12:08:14.924Z,1019.8
2023-05-04T12:09:31.110Z,1019.8
2023-05-04T12:10:47.427Z,1019.7
2023-05-04T12:12:03.491Z,1019.8
2023-05-04T12:13:19.676Z,1019.7
2023-05-04T12:14:35.862Z,1019.7
2023-05-04T12:15:52.060Z,1019.7
2023-05-04T12:17:08.249Z,1019.7
2023-05-04T12:18:24.559Z,1019.7
2023-05-04T12:19:40.748Z,1019.6
2023-05-04T12:20:56.805Z,1019.7
2023-05-04T12:22:13.127Z,1019.7
2023-05-04T12:23:29.322Z,1019.7
2023-05-04T12:24:44.393Z,1019.8
2023-05-04T12:26:00.570Z,1019.7
2023-05-04T12:27:16.762Z,1019.7
2023-05-04T12:28:32.948Z,1019.6
2023-05-04T12:29:49.144Z,1019.6
2023-05-04T12:31:05.318Z,1019.7
2023-05-04T12:32:21.518Z,1019.7
2023-05-04T12:33:37.829Z,1019.7
2023-05-04T12:34:53.881Z,1019.7
2023-05-04T12:36:10.064Z,1019.7
2023-05-04T12:37:26.258Z,1019.7
2023-05-04T12:38:42.596Z,1019.6
2023-05-04T12:39:58.632Z,1019.7
2023-05-04T12:41:13.976Z,1019.7
2023-05-04T12:42:30.022Z,1019.7
2023-05-04T12:43:46.220Z,1019.7
2023-05-04T12:45:02.542Z,1019.7
2023-05-04T12:46:18.596Z,1019.7
2023-05-04T12:47:34.776Z,1019.6
2023-05-04T12:48:51.097Z,1019.7
2023-05-04T12:50:07.141Z,1019.6
2023-05-04T12:51:23.479Z,1019.7
2023-05-04T12:52:39.513Z,1019.6
2023-05-04T12:53:55.844Z,1019.6
2023-05-04T12:55:11.902Z,1019.6
2023-05-04T12:56:28.216Z,1019.6
2023-05-04T12:57:43.294Z,1019.6
2023-05-04T12:58:59.480Z,1019.6
2023-05-04T13:00:15.663Z,1019.6
2023-05-04T13:01:31.837Z,1019.5
2023-05-04T13:02:48.034Z,1019.5
2023-05-04T13:04:04.372Z,1019.5
2023-05-04T13:05:20.413Z,1019.5
2023-05-04T13:06:36.593Z,1019.5
2023-05-04T13:07:52.779Z,1019.5
2023-05-04T13:09:09.109Z,1019.5
2023-05-04T13:10:25.163Z,1019.4
2023-05-04T13:11:41.484Z,1019.4
2023-05-04T13:12:57.526Z,1019.4
2023-05-04T13:14:12.872Z,1019.4
2023-05-04T13:15:28.917Z,1019.5
2023-05-04T13:16:45.259Z,1019.4
2023-05-04T13:18:01.299Z,1019.4
2023-05-04T13:19:17.628Z,1019.3
2023-05-04T13:20:33.668Z,1019.3
2023-05-04T13:21:49.851Z,1019.3
2023-05-04T13:23:06.051Z,1019.3
2023-05-04T13:24:22.373Z,1019.3
2023-05-04T13:25:38.424Z,1019.3
2023-05-04T13:26:54.605Z,1019.3
2023-05-04T13:28:10.797Z,1019.2
2023-05-04T13:29:26.974Z,1019.2
2023-05-04T13:30:42.175Z,1019.2
2023-05-04T13:31:58.515Z,1019.2
2023-05-04T13:33:14.547Z,1019.2
2023-05-04T13:34:30.883Z,1019.1
2023-05-04T13:35:46.918Z,1019.1
2023-05-04T13:37:03.115Z,1019.1
2023-05-04T13:38:19.309Z,1019.1
2023-05-04T13:39:35.483Z,1019.1
2023-05-04T13:40:51.685Z,1019
2023-05-04T13:42:08.014Z,1019
2023-05-04T13:43:24.051Z,1019
2023-05-04T13:44:40.241Z,1019
2023-05-04T13:45:56.421Z,1019
2023-05-04T13:47:11.780Z,1019
2023-05-04T13:48:27.805Z,1018.9
2023-05-04T13:49:44.002Z,1019
2023-05-04T13:51:00.186Z,1018.9
2023-05-04T13:52:16.379Z,1018.9
2023-05-04T13:53:32.570Z,1018.8
2023-05-04T13:54:48.905Z,1018.8
2023-05-04T13:56:04.943Z,1018.8
2023-05-04T13:57:21.288Z,1018.9
2023-05-04T13:58:37.302Z,1018.9
2023-05-04T13:59:53.506Z,1018.8
2023-05-04T14:01:09.689Z,1018.7
2023-05-04T14:02:26.020Z,1018.8
2023-05-04T14:03:41.085Z,1018.7
2023-05-04T14:04:57.416Z,1018.8
2023-05-04T14:06:13.440Z,1018.7
2023-05-04T14:07:29.636Z,1018.7
2023-05-04T14:08:45.830Z,1018.7
2023-05-04T14:10:02.168Z,1018.7
2023-05-04T14:11:18.189Z,1018.6
2023-05-04T14:12:34.537Z,1018.7
2023-05-04T14:13:50.564Z,1018.7
2023-05-04T14:15:06.767Z,1018.7
2023-05-04T14:16:22.943Z,1018.7
2023-05-04T14:17:39.296Z,1018.6
2023-05-04T14:18:55.308Z,1018.5
2023-05-04T14:20:10.689Z,1018.5
2023-05-04T14:21:26.707Z,1018.5
2023-05-04T14:22:42.897Z,1018.5
2023-05-04T14:23:59.087Z,1018.5
2023-05-04T14:25:15.421Z,1018.4
2023-05-04T14:26:31.613Z,1018.3
2023-05-04T14:27:47.803Z,1018.4
2023-05-04T14:29:03.829Z,1018.4
2023-05-04T14:30:20.181Z,1018.4
2023-05-04T14:31:36.207Z,1018.3
2023-05-04T14:32:52.551Z,1018.3
2023-05-04T14:34:08.579Z,1018.3
2023-05-04T14:35:24.767Z,1018.3
2023-05-04T14:36:39.959Z,1018.3
2023-05-04T14:37:56.160Z,1018.3
2023-05-04T14:39:12.344Z,1018.2
2023-05-04T14:40:28.701Z,1018.3
2023-05-04T14:41:44.712Z,1018.3
2023-05-04T14:43:01.062Z,1018.2
2023-05-04T14:44:16.111Z,1018.2
2023-05-04T14:45:32.296Z,1018.2
2023-05-04T14:46:48.482Z,1018.3
2023-05-04T14:48:04.831Z,1018.2
2023-05-04T14:49:20.869Z,1018.2
2023-05-04T14:50:37.213Z,1018.2
2023-05-04T14:51:53.225Z,1018.1
2023-05-04T14:53:09.426Z,1018.1
2023-05-04T14:54:25.598Z,1018.1
2023-05-04T14:55:41.798Z,1018.1
2023-05-04T14:56:57.980Z,1018.1
2023-05-04T14:58:14.334Z,1018.1
2023-05-04T14:59:30.358Z,1018
2023-05-04T15:00:45.552Z,1018.1
2023-05-04T15:02:01.750Z,1018
2023-05-04T15:03:18.112Z,1018
2023-05-04T15:04:34.123Z,1018
2023-05-04T15:05:50.487Z,1018
2023-05-04T15:07:06.488Z,1018
2023-05-04T15:08:22.682Z,1018
2023-05-04T15:09:38.877Z,1018
2023-05-04T15:10:55.226Z,1018
2023-05-04T15:12:11.239Z,1018
2023-05-04T15:13:27.598Z,1018
2023-05-04T15:14:43.616Z,1018
2023-05-04T15:15:59.806Z,1018
2023-05-04T15:17:15.178Z,1017.9
2023-05-04T15:18:31.360Z,1017.8
2023-05-04T15:19:47.373Z,1017.9
2023-05-04T15:21:03.743Z,1017.9
2023-05-04T15:22:19.759Z,1017.8
2023-05-04T15:23:35.949Z,1017.9
2023-05-04T15:26:08.485Z,1017.8
2023-05-04T15:27:24.497Z,1017.7
2023-05-04T15:28:40.690Z,1017.8
2023-05-04T15:29:56.869Z,1017.7
2023-05-04T15:31:13.236Z,1017.7
2023-05-04T15:32:29.430Z,1017.7
2023-05-04T15:33:44.636Z,1017.7
2023-05-04T15:35:00.643Z,1017.6
2023-05-04T15:36:17.010Z,1017.7
2023-05-04T15:37:33.020Z,1017.7
2023-05-04T15:38:49.204Z,1017.7
2023-05-04T15:40:05.381Z,1017.7
2023-05-04T15:41:21.750Z,1017.6
2023-05-04T15:42:37.771Z,1017.6
2023-05-04T15:43:54.135Z,1017.6
2023-05-04T15:45:10.135Z,1017.6
2023-05-04T15:46:26.510Z,1017.6
2023-05-04T15:47:42.520Z,1017.6
2023-05-04T15:48:58.890Z,1017.6
2023-05-04T15:50:13.894Z,1017.7
2023-05-04T15:51:30.090Z,1017.6
2023-05-04T15:52:46.265Z,1017.6
2023-05-04T15:54:02.451Z,1017.6
2023-05-04T15:55:18.641Z,1017.6
2023-05-04T15:56:34.838Z,1017.6
2023-05-04T15:57:51.024Z,1017.6
2023-05-04T15:59:07.379Z,1017.5
2023-05-04T16:00:23.400Z,1017.5
2023-05-04T16:01:39.578Z,1017.6
2023-05-04T16:02:55.776Z,1017.6
2023-05-04T16:04:12.130Z,1017.6